This is the latest recevied weather packets stored in our database for station/object SP2TMT-10. If no packets are shown the sender has not sent any weather packets the latest 10 day(s).
| Time | Temp. | Humidity | Pressure | Rain* | Wind** | Luminosity | Snow |
|---|---|---|---|---|---|---|---|
| 1777757260 | 21.67° C | 40% | 1017.7 hPa | - | - | - | - |
| 1777756360 | 21.67° C | 40% | 1017.7 hPa | - | - | - | - |
| 1777753659 | 21.67° C | 41% | 1017.9 hPa | - | - | - | - |
| 1777748259 | 21.67° C | 48% | 1018.1 hPa | - | - | - | - |
| 1777746459 | 22.22° C | 49% | 1017.9 hPa | - | - | - | - |
| 1777742853 | 26.67° C | 68% | 1017.9 hPa | - | - | - | - |
| 1777741053 | 21.11° C | 36% | 1018.1 hPa | - | - | - | - |
| 1777739253 | 21.11° C | 41% | 1018.5 hPa | - | - | - | - |
| 1777735652 | 21.11° C | 46% | 1019 hPa | - | - | - | - |
| 1777734752 | 21.11° C | 47% | 1019.3 hPa | - | - | - | - |
| 1777733852 | 21.11° C | 41% | 1019.4 hPa | - | - | - | - |
| 1777732047 | 21.11° C | 43% | 1019.7 hPa | - | - | - | - |
| 1777731147 | 21.11° C | 43% | 1019.9 hPa | - | - | - | - |
| 1777730246 | 21.11° C | 43% | 1019.9 hPa | - | - | - | - |
| 1777728446 | 21.11° C | 43% | 1020.2 hPa | - | - | - | - |
| 1777727547 | 21.11° C | 43% | 1020.5 hPa | - | - | - | - |
| 1777726646 | 21.11° C | 43% | 1020.7 hPa | - | - | - | - |
| 1777724846 | 21.11° C | 43% | 1021.1 hPa | - | - | - | - |
| 1777723946 | 21.11° C | 44% | 1021.2 hPa | - | - | - | - |
| 1777723046 | 21.11° C | 44% | 1021.4 hPa | - | - | - | - |
| 1777722146 | 21.11° C | 44% | 1021.7 hPa | - | - | - | - |
| 1777721245 | 21.11° C | 45% | 1021.8 hPa | - | - | - | - |
| 1777720345 | 20.56° C | 46% | 1021.9 hPa | - | - | - | - |
| 1777719448 | 20.56° C | 46% | 1022 hPa | - | - | - | - |
| 1777718540 | 21.11° C | 45% | 1022.2 hPa | - | - | - | - |
* Rain since midnight (hover to see other rain measurements)
** Current wind speed in m/s (hover to see current wind gust speed)